Washington Grove, MD (20880)

5:05 PM EDT on September 01, 2014 (GMT -0400)
KMDGAITH12 | Change Station
CLOSE
Current Station
Personal Weather Station
Location: Gaithersburg, MD
Elevation: 467 ft
Nearby Weather Stations

Elev 467 ft 39.16 °N, 77.18 °W | Updated 10 minutes ago

Clear
Clear
83.9 °F
Feels Like 91 °F
N
0.0
Wind Variable Wind from ESE
Gusts 1.0 mph

Today
High -- | Low -- °F
--% Chance of Precip.
Yesterday
High -- | Low -- °F
Precip. -- in
6:37 AM 7:39 PM
Waxing Crescent, 44% visible
Pressure 30.00 in
Visibility 10.0 miles
Clouds Clear
Heat Index 91 °F
Dew Point 74 °F
Humidity 73%
Rainfall 0.03 in
Snow Depth Not available.
UV 3 out of 12
Pollen 7.30 out of 12
Air Quality Not available.
Flu Activity Not available.
METAR KGAI 012055Z AUTO 00000KT 10SM CLR 28/23 A3000 RMK AO1 LTG DSNT SE TSE08 60003 57010

More Conditions Fewer Conditions

Pressure 30.00 in
Visibility 10.0 miles
Clouds Clear
Heat Index 91 °F
Dew Point 74 °F
Humidity 73%
Rainfall 0.03 in
Snow Depth Not available.
UV 3 out of 12
Pollen 7.30 out of 12
Air Quality Not available.
Flu Activity Not available.
METAR KGAI 012055Z AUTO 00000KT 10SM CLR 28/23 A3000 RMK AO1 LTG DSNT SE TSE08 60003 57010

More Conditions Fewer Conditions

Nowcast | as of 4:24 PM EDT on September 1, 2014

At 420 PM EDT...Doppler radar detected a thunderstorm. This thunderstorm was located near Rosslyn...moving southeast at 25 mph. Locations that likely will be impacted include nationals park... Anacostia...Bolling Air Force Base...rfk stadium...Suitland-Silver Hill...Suitland...Marlow Heights...Coral Hills...Morningside and Forestville. Occasional cloud to ground lightning is occurring. Move indoors until the storm has passed. Gusty winds of 30 to 40 mph can be expected. Heavy downpours could reduce visibilities and cause water to pond on roadways. Lat...Lon 3867 7689 3884 7718 3898 7703 3886 7672 time...Mot...loc 2024z 294deg 20kt 3888 7704

×

10-Day Weather Forecast

Almanac

Astronomy

Sep. 01, 2014 Rise Set
Actual Time 6:37 AM EDT 7:39 PM EDT
Civil Twilight 6:09 AM EDT 8:06 PM EDT
Nautical Twilight 5:37 AM EDT 8:39 PM EDT
Astronomical Twilight 5:03 AM EDT 9:13 PM EDT
Moon 1:18 PM EDT 11:41 PM EDT
Length of Visible Light 13h 56m
Length of Day
13h 01m
Tomorrow will be 2m 28s shorter.
Waxing Crescent, 44% of the Moon is Illuminated
Today
Waxing Crescent
Sep 2
First Quarter
Sep 8
Full
Sep 15
Last Quarter
Sep 24
New

Today's Extremes

State Highs State Lows

Community

WunderPhotos

Upload Photos

1,749,407 photos uploaded!

WunderBlogs® & News

Nearby

Snow Depth

Station Depth Elevation
No new snow has been reported.

Earthquake Activity

City Distance Mag. Time & Date
No recent earthquake activity has been reported nearby.
Minimum magnitude displayed is 2.5.

Coastal Water Temperatures

Place Temperature
Washington, DC 80.1 °F
Baltimore, MD 81.0 °F
Solomons Island, MD 80.1 °F

Nearby Weather Stations